createdAt,value
2019-01-21T00:00:34.688Z,12.30
2019-01-21T00:03:03.978Z,12.77
2019-01-21T00:05:33.618Z,13.80
2019-01-21T00:08:03.699Z,12.17
2019-01-21T00:10:33.023Z,13.37
2019-01-21T00:13:02.269Z,11.57
2019-01-21T00:15:31.900Z,13.53
2019-01-21T00:18:01.447Z,10.80
2019-01-21T00:20:31.118Z,11.93
2019-01-21T00:23:00.357Z,11.10
2019-01-21T00:25:29.984Z,12.53
2019-01-21T00:27:59.992Z,12.40
2019-01-21T00:30:29.658Z,12.67
2019-01-21T00:32:59.258Z,14.23
2019-01-21T00:35:28.533Z,14.40
2019-01-21T00:37:58.141Z,13.63
2019-01-21T00:40:46.954Z,12.23
2019-01-21T00:43:16.536Z,14.50
2019-01-21T00:45:46.482Z,13.00
2019-01-21T00:48:16.168Z,11.90
2019-01-21T00:51:05.013Z,11.10
2019-01-21T00:53:35.163Z,11.00
2019-01-21T00:56:04.822Z,12.40
2019-01-21T00:58:34.492Z,12.73
2019-01-21T01:01:04.153Z,11.60
2019-01-21T01:03:33.875Z,12.30
2019-01-21T01:06:03.438Z,12.03
2019-01-21T01:08:33.022Z,13.90
2019-01-21T01:11:02.554Z,12.90
2019-01-21T01:13:32.530Z,12.07
2019-01-21T01:16:01.793Z,11.60
2019-01-21T01:18:31.477Z,12.43
2019-01-21T01:21:00.720Z,12.47
2019-01-21T01:23:30.263Z,11.30
2019-01-21T01:25:59.927Z,12.00
2019-01-21T01:28:29.501Z,10.77
2019-01-21T01:30:59.148Z,11.40
2019-01-21T01:33:28.781Z,12.10
2019-01-21T01:35:58.439Z,11.53
2019-01-21T01:38:28.471Z,11.70
2019-01-21T01:40:58.425Z,11.27
2019-01-21T01:43:28.573Z,11.43
2019-01-21T01:45:57.956Z,10.50
2019-01-21T01:48:28.026Z,11.57
2019-01-21T01:50:57.599Z,11.77
2019-01-21T01:53:26.934Z,12.03
2019-01-21T01:55:56.343Z,13.03
2019-01-21T01:58:26.108Z,13.03
2019-01-21T02:00:55.691Z,10.77
2019-01-21T02:03:44.114Z,10.63
2019-01-21T02:06:33.128Z,10.80
2019-01-21T02:09:22.250Z,9.63
2019-01-21T02:11:51.480Z,10.13
2019-01-21T02:14:21.423Z,10.17
2019-01-21T02:16:50.795Z,12.20
2019-01-21T02:19:20.575Z,10.40
2019-01-21T02:21:50.709Z,11.73
2019-01-21T02:24:20.776Z,11.17
2019-01-21T02:27:00.010Z,10.43
2019-01-21T02:29:47.351Z,10.63
2019-01-21T02:33:04.228Z,9.77
2019-01-21T02:36:16.426Z,10.93
2019-01-21T02:39:28.755Z,10.83
2019-01-21T02:42:45.363Z,9.37
2019-01-21T02:45:55.135Z,10.53
2019-01-21T02:48:41.944Z,10.90
2019-01-21T02:51:39.235Z,10.90
2019-01-21T02:54:42.974Z,10.13
2019-01-21T02:58:11.943Z,9.27
2019-01-21T03:01:00.596Z,10.63
2019-01-21T03:03:42.238Z,11.50
2019-01-21T03:06:46.151Z,10.83
2019-01-21T03:09:57.008Z,10.40
2019-01-21T03:13:03.675Z,10.60
2019-01-21T03:16:03.834Z,9.63
2019-01-21T03:19:00.246Z,9.57
2019-01-21T03:22:06.406Z,9.87
2019-01-21T03:25:24.794Z,9.53
2019-01-21T03:28:29.841Z,10.30
2019-01-21T03:31:53.276Z,10.37
2019-01-21T03:35:04.674Z,9.07
2019-01-21T03:38:03.875Z,8.90
2019-01-21T03:41:00.185Z,9.73
2019-01-21T03:44:10.427Z,10.40
2019-01-21T03:47:33.982Z,11.00
2019-01-21T03:50:44.921Z,10.80
2019-01-21T03:53:57.110Z,11.17
2019-01-21T03:57:01.867Z,10.40
2019-01-21T04:00:09.020Z,11.53
2019-01-21T04:02:57.961Z,11.30
2019-01-21T04:06:26.892Z,11.17
2019-01-21T04:09:49.354Z,10.33
2019-01-21T04:12:47.041Z,10.50
2019-01-21T04:15:48.854Z,10.57
2019-01-21T04:18:56.591Z,10.83
2019-01-21T04:22:09.272Z,9.87
2019-01-21T04:25:19.237Z,10.57
2019-01-21T04:28:25.625Z,11.80
2019-01-21T04:31:43.030Z,11.00
2019-01-21T04:34:54.346Z,10.63
2019-01-21T04:38:10.643Z,10.13
2019-01-21T04:41:27.318Z,10.60
2019-01-21T04:44:30.590Z,12.60
2019-01-21T04:47:25.072Z,11.00
2019-01-21T04:50:20.872Z,13.20
2019-01-21T04:53:44.199Z,13.73
2019-01-21T04:56:50.629Z,14.30
2019-01-21T04:59:54.245Z,15.37
2019-01-21T05:03:01.088Z,14.47
2019-01-21T05:06:12.552Z,15.60
2019-01-21T05:09:18.148Z,15.57
2019-01-21T05:12:44.089Z,16.47
2019-01-21T05:15:51.404Z,17.43
2019-01-21T05:18:50.816Z,17.60
2019-01-21T05:22:04.917Z,15.13
2019-01-21T05:25:30.848Z,18.33
2019-01-21T05:28:26.162Z,19.67
2019-01-21T05:31:41.990Z,18.80
2019-01-21T05:34:53.656Z,22.40
2019-01-21T05:38:22.300Z,18.70
2019-01-21T05:41:07.352Z,19.33
2019-01-21T05:44:09.796Z,21.13
2019-01-21T05:47:35.770Z,20.47
2019-01-21T05:50:34.627Z,17.80
2019-01-21T05:53:37.183Z,18.03
2019-01-21T05:56:42.554Z,17.57
2019-01-21T05:59:55.199Z,17.30
2019-01-21T06:03:04.672Z,16.93
2019-01-21T06:06:20.398Z,17.97
2019-01-21T06:09:49.252Z,23.43
2019-01-21T06:12:57.314Z,17.90
2019-01-21T06:16:11.379Z,18.87
2019-01-21T06:19:17.811Z,17.43
2019-01-21T06:22:23.505Z,16.73
2019-01-21T06:25:12.254Z,17.23
2019-01-21T06:28:32.007Z,18.33
2019-01-21T06:31:44.607Z,16.90
2019-01-21T06:34:39.014Z,17.20
2019-01-21T06:38:02.372Z,17.30
2019-01-21T06:41:10.715Z,15.30
2019-01-21T06:44:10.592Z,16.77
2019-01-21T06:47:04.605Z,16.67
2019-01-21T06:50:08.462Z,16.77
2019-01-21T06:53:46.996Z,17.73
2019-01-21T06:56:47.632Z,16.70
2019-01-21T06:59:46.589Z,18.50
2019-01-21T07:02:40.781Z,16.50
2019-01-21T07:05:23.044Z,15.57
2019-01-21T07:08:39.605Z,14.80
2019-01-21T07:11:49.885Z,14.83
2019-01-21T07:15:00.510Z,14.90
2019-01-21T07:18:20.068Z,14.97
2019-01-21T07:21:16.176Z,17.83
2019-01-21T07:24:24.726Z,16.43
2019-01-21T07:27:39.618Z,14.33
2019-01-21T07:30:43.564Z,16.20
2019-01-21T07:33:59.134Z,19.87
2019-01-21T07:37:19.506Z,18.00
2019-01-21T07:40:17.379Z,18.57
2019-01-21T07:43:21.818Z,17.57
2019-01-21T07:46:13.226Z,18.47
2019-01-21T07:49:54.382Z,17.87
2019-01-21T07:53:09.210Z,17.53
2019-01-21T07:56:06.196Z,17.80
2019-01-21T07:59:12.535Z,18.80
2019-01-21T08:02:04.009Z,19.47
2019-01-21T08:05:28.634Z,20.77
2019-01-21T08:08:28.826Z,21.77
2019-01-21T08:11:36.571Z,22.90
2019-01-21T08:14:35.493Z,24.07
2019-01-21T08:17:45.169Z,20.90
2019-01-21T08:20:33.241Z,21.23
2019-01-21T08:24:05.658Z,19.90
2019-01-21T08:27:28.397Z,20.27
2019-01-21T08:30:23.198Z,20.60
2019-01-21T08:33:52.298Z,21.57
2019-01-21T08:37:06.160Z,20.23
2019-01-21T08:40:22.845Z,18.73
2019-01-21T08:43:22.772Z,20.17
2019-01-21T08:46:21.529Z,18.13
2019-01-21T08:49:33.836Z,19.80
2019-01-21T08:52:34.424Z,17.23
2019-01-21T08:55:54.070Z,20.00
2019-01-21T08:58:52.251Z,20.43
2019-01-21T09:01:47.807Z,19.40
2019-01-21T09:05:22.479Z,18.43
2019-01-21T09:08:27.986Z,19.40
2019-01-21T09:11:09.909Z,18.40
2019-01-21T09:14:29.767Z,21.93
2019-01-21T09:17:22.198Z,16.20
2019-01-21T09:20:34.937Z,19.57
2019-01-21T09:23:48.735Z,18.10
2019-01-21T09:26:48.282Z,22.10
2019-01-21T09:29:29.222Z,17.83
2019-01-21T09:32:31.787Z,20.50
2019-01-21T09:35:42.688Z,19.20
2019-01-21T09:39:11.754Z,19.10
2019-01-21T09:42:11.646Z,17.50
2019-01-21T09:45:12.846Z,18.90
2019-01-21T09:48:00.689Z,20.07
2019-01-21T09:50:30.490Z,20.70
2019-01-21T09:52:59.695Z,21.60
2019-01-21T09:55:29.669Z,20.20
2019-01-21T09:58:09.901Z,18.97
2019-01-21T10:00:39.188Z,18.00
2019-01-21T10:03:09.258Z,19.60
2019-01-21T10:05:38.943Z,19.90
2019-01-21T10:08:44.845Z,20.83
2019-01-21T10:11:55.691Z,18.40
2019-01-21T10:15:08.205Z,18.43
2019-01-21T10:18:12.698Z,20.73
2019-01-21T10:21:35.043Z,19.40
2019-01-21T10:24:46.130Z,19.60
2019-01-21T10:27:56.140Z,18.10
2019-01-21T10:30:44.169Z,18.27
2019-01-21T10:33:54.894Z,20.67
2019-01-21T10:37:08.314Z,19.20
2019-01-21T10:40:24.658Z,19.50
2019-01-21T10:43:44.283Z,19.80
2019-01-21T10:46:42.727Z,19.30
2019-01-21T10:49:47.836Z,21.57
2019-01-21T10:52:48.322Z,17.43
2019-01-21T10:56:01.946Z,18.50
2019-01-21T10:59:05.822Z,20.23
2019-01-21T11:02:12.365Z,18.47
2019-01-21T11:05:16.598Z,21.00
2019-01-21T11:08:34.367Z,19.27
2019-01-21T11:11:54.163Z,17.47
2019-01-21T11:14:37.672Z,19.40
2019-01-21T11:17:50.411Z,19.73
2019-01-21T11:20:50.770Z,18.03
2019-01-21T11:24:08.572Z,19.90
2019-01-21T11:27:01.628Z,18.07
2019-01-21T11:29:57.362Z,19.30
2019-01-21T11:33:18.791Z,19.10
2019-01-21T11:36:13.289Z,18.67
2019-01-21T11:39:39.756Z,17.10
2019-01-21T11:42:53.366Z,19.50
2019-01-21T11:46:11.951Z,17.43
2019-01-21T11:49:09.859Z,17.40
2019-01-21T11:52:08.008Z,18.70
2019-01-21T11:55:14.635Z,18.00
2019-01-21T11:58:23.366Z,18.10
2019-01-21T12:01:26.241Z,18.53
2019-01-21T12:04:21.104Z,17.47
2019-01-21T12:07:35.115Z,17.63
2019-01-21T12:10:36.383Z,17.50
2019-01-21T12:13:57.765Z,15.90
2019-01-21T12:16:53.702Z,16.10
2019-01-21T12:20:07.987Z,16.03
2019-01-21T12:23:26.313Z,17.23
2019-01-21T12:26:16.505Z,16.03
2019-01-21T12:28:55.567Z,15.90
2019-01-21T12:31:48.964Z,17.60
2019-01-21T12:34:33.752Z,17.37
2019-01-21T12:37:44.261Z,16.90
2019-01-21T12:40:41.548Z,16.70
2019-01-21T12:43:39.590Z,18.53
2019-01-21T12:46:40.682Z,20.70
2019-01-21T12:50:02.455Z,15.20
2019-01-21T12:52:48.641Z,16.20
2019-01-21T12:55:47.451Z,21.37
2019-01-21T12:58:43.589Z,17.37
2019-01-21T13:01:24.089Z,18.73
2019-01-21T13:04:40.837Z,17.13
2019-01-21T13:08:09.776Z,15.50
2019-01-21T13:11:16.953Z,16.10
2019-01-21T13:14:38.622Z,17.70
2019-01-21T13:17:28.872Z,19.73
2019-01-21T13:20:31.735Z,18.03
2019-01-21T13:23:32.002Z,16.10
2019-01-21T13:26:36.354Z,15.93
2019-01-21T13:29:30.122Z,16.60
2019-01-21T13:32:40.563Z,17.13
2019-01-21T13:35:40.734Z,15.50
2019-01-21T13:38:43.427Z,15.80
2019-01-21T13:41:43.264Z,15.40
2019-01-21T13:44:49.881Z,17.80
2019-01-21T13:48:06.663Z,16.67
2019-01-21T13:51:07.142Z,18.40
2019-01-21T13:54:24.026Z,17.00
2019-01-21T13:57:07.525Z,17.10
2019-01-21T14:00:01.871Z,17.70
2019-01-21T14:02:59.851Z,16.40
2019-01-21T14:05:51.682Z,16.37
2019-01-21T14:08:51.166Z,17.00
2019-01-21T14:11:53.516Z,16.90
2019-01-21T14:15:02.683Z,16.50
2019-01-21T14:18:40.696Z,16.40
2019-01-21T14:21:17.775Z,17.20
2019-01-21T14:24:33.869Z,15.70
2019-01-21T14:27:35.104Z,15.60
2019-01-21T14:30:22.206Z,16.00
2019-01-21T14:33:36.767Z,16.00
2019-01-21T14:36:56.967Z,15.40
2019-01-21T14:39:52.274Z,16.43
2019-01-21T14:42:35.245Z,15.80
2019-01-21T14:45:30.328Z,16.47
2019-01-21T14:48:56.460Z,15.27
2019-01-21T14:52:16.754Z,16.13
2019-01-21T14:55:17.546Z,14.97
2019-01-21T14:58:25.381Z,15.13
2019-01-21T15:02:02.774Z,13.83
2019-01-21T15:05:15.370Z,17.37
2019-01-21T15:08:34.470Z,17.30
2019-01-21T15:11:36.463Z,17.57
2019-01-21T15:14:31.439Z,18.43
2019-01-21T15:17:56.033Z,14.97
2019-01-21T15:20:44.365Z,16.97
2019-01-21T15:23:54.726Z,16.00
2019-01-21T15:26:55.355Z,15.73
2019-01-21T15:30:15.017Z,16.20
2019-01-21T15:33:16.942Z,14.93
2019-01-21T15:36:13.262Z,16.23
2019-01-21T15:39:22.169Z,17.07
2019-01-21T15:42:29.002Z,16.63
2019-01-21T15:45:49.903Z,14.00
2019-01-21T15:48:51.583Z,15.63
2019-01-21T15:51:58.687Z,17.70
2019-01-21T15:55:05.796Z,16.43
2019-01-21T15:58:02.802Z,16.97
2019-01-21T16:01:12.634Z,18.60
2019-01-21T16:04:23.115Z,15.30
2019-01-21T16:07:12.298Z,18.10
2019-01-21T16:10:18.815Z,18.83
2019-01-21T16:13:30.939Z,19.20
2019-01-21T16:16:46.397Z,18.70
2019-01-21T16:19:18.908Z,17.03
2019-01-21T16:22:40.173Z,17.50
2019-01-21T16:25:33.203Z,17.50
2019-01-21T16:28:39.497Z,16.90
2019-01-21T16:31:23.653Z,16.43
2019-01-21T16:34:28.627Z,18.93
2019-01-21T16:37:22.448Z,16.33
2019-01-21T16:40:19.719Z,18.27
2019-01-21T16:42:49.465Z,16.67
2019-01-21T16:45:18.782Z,17.67
2019-01-21T16:47:48.825Z,18.50
2019-01-21T16:50:18.359Z,18.90
2019-01-21T16:52:47.559Z,18.57
2019-01-21T16:55:16.842Z,17.57
2019-01-21T16:57:46.497Z,19.10
2019-01-21T17:00:15.741Z,18.10
2019-01-21T17:02:45.503Z,16.90
2019-01-21T17:05:14.837Z,18.87
2019-01-21T17:07:44.580Z,18.73
2019-01-21T17:10:14.139Z,18.27
2019-01-21T17:12:43.922Z,17.03
2019-01-21T17:15:13.215Z,19.10
2019-01-21T17:17:42.587Z,18.13
2019-01-21T17:20:18.420Z,17.90
2019-01-21T17:22:48.046Z,17.93
2019-01-21T17:25:17.302Z,17.10
2019-01-21T17:27:46.942Z,17.00
2019-01-21T17:30:16.585Z,17.43
2019-01-21T17:32:46.511Z,17.20
2019-01-21T17:35:16.535Z,20.33
2019-01-21T17:37:46.314Z,18.40
2019-01-21T17:40:17.291Z,17.30
2019-01-21T17:42:46.697Z,18.50
2019-01-21T17:45:18.070Z,17.77
2019-01-21T17:47:48.891Z,17.60
2019-01-21T17:50:18.817Z,17.90
2019-01-21T17:52:48.460Z,16.13
2019-01-21T17:55:18.457Z,16.57
2019-01-21T17:57:47.899Z,17.77
2019-01-21T18:00:36.365Z,15.87
2019-01-21T18:03:06.050Z,17.97
2019-01-21T18:05:35.470Z,17.40
2019-01-21T18:08:05.007Z,17.40
2019-01-21T18:10:34.683Z,18.00
2019-01-21T18:13:04.741Z,17.33
2019-01-21T18:15:34.001Z,18.53
2019-01-21T18:18:03.539Z,16.30
2019-01-21T18:20:33.113Z,19.30
2019-01-21T18:23:02.330Z,19.53
2019-01-21T18:25:33.077Z,18.03
2019-01-21T18:28:02.519Z,18.33
2019-01-21T18:30:31.763Z,18.40
2019-01-21T18:33:01.775Z,17.83
2019-01-21T18:35:31.416Z,17.63
2019-01-21T18:38:01.167Z,19.10
2019-01-21T18:40:30.907Z,18.53
2019-01-21T18:43:00.157Z,17.20
2019-01-21T18:45:29.395Z,17.73
2019-01-21T18:47:59.061Z,15.83
2019-01-21T18:50:28.801Z,18.47
2019-01-21T18:52:58.473Z,18.87
2019-01-21T18:55:28.173Z,16.90
2019-01-21T18:57:57.836Z,20.20
2019-01-21T19:00:27.282Z,19.80
2019-01-21T19:02:57.294Z,17.17
2019-01-21T19:05:26.544Z,17.77
2019-01-21T19:07:55.839Z,18.67
2019-01-21T19:10:25.081Z,18.23
2019-01-21T19:12:54.554Z,18.70
2019-01-21T19:15:29.249Z,17.23
2019-01-21T19:17:58.613Z,18.93
2019-01-21T19:20:28.266Z,19.20
2019-01-21T19:22:57.939Z,19.17
2019-01-21T19:25:27.596Z,17.33
2019-01-21T19:27:56.876Z,16.90
2019-01-21T19:30:27.847Z,18.63
2019-01-21T19:32:57.810Z,18.27
2019-01-21T19:35:35.635Z,18.17
2019-01-21T19:38:05.354Z,17.80
2019-01-21T19:40:34.882Z,17.73
2019-01-21T19:43:04.428Z,17.63
2019-01-21T19:45:34.463Z,18.27
2019-01-21T19:48:03.798Z,20.20
2019-01-21T19:50:33.434Z,18.27
2019-01-21T19:53:02.986Z,18.60
2019-01-21T19:55:43.147Z,18.93
2019-01-21T19:58:13.195Z,18.40
2019-01-21T20:00:42.466Z,16.97
2019-01-21T20:03:12.894Z,17.17
2019-01-21T20:05:42.548Z,17.47
2019-01-21T20:08:12.221Z,17.77
2019-01-21T20:10:41.553Z,18.00
2019-01-21T20:13:11.153Z,18.60
2019-01-21T20:15:40.675Z,19.53
2019-01-21T20:18:09.996Z,17.00
2019-01-21T20:20:41.520Z,17.77
2019-01-21T20:23:10.909Z,18.87
2019-01-21T20:25:40.152Z,18.23
2019-01-21T20:28:09.688Z,20.00
2019-01-21T20:30:39.044Z,18.33
2019-01-21T20:33:08.702Z,17.20
2019-01-21T20:35:38.316Z,19.67
2019-01-21T20:38:07.584Z,19.20
2019-01-21T20:40:37.025Z,18.90
2019-01-21T20:43:06.814Z,18.70
2019-01-21T20:45:36.363Z,18.67
2019-01-21T20:48:06.017Z,18.03
2019-01-21T20:50:36.322Z,18.60
2019-01-21T20:53:06.158Z,19.23
2019-01-21T20:55:35.822Z,19.37
2019-01-21T20:58:05.234Z,20.27
2019-01-21T21:00:35.778Z,18.17
2019-01-21T21:03:06.010Z,18.30
2019-01-21T21:05:35.489Z,18.37
2019-01-21T21:08:05.576Z,18.37
2019-01-21T21:10:35.293Z,18.63
2019-01-21T21:13:05.476Z,19.53
2019-01-21T21:15:34.968Z,18.83
2019-01-21T21:18:04.320Z,18.40
2019-01-21T21:20:34.100Z,18.80
2019-01-21T21:23:03.823Z,18.87
2019-01-21T21:25:33.550Z,19.00
2019-01-21T21:28:03.300Z,16.77
2019-01-21T21:30:33.703Z,17.80
2019-01-21T21:33:03.352Z,16.63
2019-01-21T21:35:33.073Z,18.13
2019-01-21T21:38:02.399Z,18.03
2019-01-21T21:40:32.083Z,17.57
2019-01-21T21:43:01.590Z,19.00
2019-01-21T21:45:31.051Z,18.00
2019-01-21T21:48:01.261Z,17.43
2019-01-21T21:50:32.717Z,17.87
2019-01-21T21:53:02.061Z,17.00
2019-01-21T21:55:31.543Z,18.50
2019-01-21T21:58:00.922Z,17.60
2019-01-21T22:00:30.469Z,19.70
2019-01-21T22:03:00.474Z,17.63
2019-01-21T22:05:30.582Z,18.00
2019-01-21T22:08:00.686Z,17.77
2019-01-21T22:10:31.187Z,18.03
2019-01-21T22:13:00.555Z,16.97
2019-01-21T22:15:29.977Z,17.83
2019-01-21T22:17:59.804Z,17.13
2019-01-21T22:20:29.131Z,18.63
2019-01-21T22:22:58.439Z,18.90
2019-01-21T22:25:27.792Z,18.47
2019-01-21T22:27:57.858Z,17.10
2019-01-21T22:30:29.810Z,17.90
2019-01-21T22:32:59.049Z,18.30
2019-01-21T22:35:29.090Z,17.80
2019-01-21T22:37:58.686Z,19.00
2019-01-21T22:40:28.312Z,18.30
2019-01-21T22:42:58.219Z,20.00
2019-01-21T22:45:46.919Z,18.77
2019-01-21T22:48:16.952Z,20.40
2019-01-21T22:50:46.178Z,20.67
2019-01-21T22:53:15.421Z,19.87
2019-01-21T22:55:45.353Z,19.93
2019-01-21T22:58:15.096Z,21.57
2019-01-21T23:01:05.986Z,20.40
2019-01-21T23:03:36.084Z,19.77
2019-01-21T23:06:06.273Z,20.30
2019-01-21T23:08:36.021Z,20.57
2019-01-21T23:11:05.684Z,20.53
2019-01-21T23:13:35.311Z,20.47
2019-01-21T23:16:04.680Z,21.00
2019-01-21T23:18:34.312Z,20.40
2019-01-21T23:21:03.702Z,19.37
2019-01-21T23:23:32.965Z,20.13
2019-01-21T23:26:02.580Z,20.33
2019-01-21T23:28:32.366Z,20.37
2019-01-21T23:31:02.359Z,20.93
2019-01-21T23:33:32.007Z,20.10
2019-01-21T23:36:01.241Z,20.50
2019-01-21T23:38:30.495Z,20.50
2019-01-21T23:41:00.496Z,20.40
2019-01-21T23:43:30.119Z,21.40
2019-01-21T23:45:59.362Z,21.93
2019-01-21T23:48:28.994Z,19.17
2019-01-21T23:50:58.549Z,20.70
2019-01-21T23:53:28.513Z,20.03
2019-01-21T23:55:58.201Z,21.40
2019-01-21T23:58:28.224Z,20.73
